Stagecoach, Nevada
Current Conditions -  °F | °C
As of 7:35 PM on Saturday 22 Nov 2014 (Local Time) from KCXP Reporting Station
Broken Clouds Broken Clouds  
Wind Chill: 37°   Ceiling: 7000
Heat Index: 43°   Visibility: 10mi
Dew Point: 23°   Wind: 10mph
Humidity: 46%   Direction: 300°WNW
Pressure: 30.17"   Gusts: NA
Location:  39.3955°N, 119.266°W
Report Text: KCXP 230335Z AUTO 30009KT 10SM SCT060 BKN070 06/M05 A3017 RMK AO2
Loading
Personal Weather Stations






























Interactive Weather Map New forecast layout! Learn more

10-Day Weather Forecast

Advertisements
Track Severe Weather on mobile